createdAt,value
2019-05-21T00:00:06.089Z,0
2019-05-21T00:01:05.561Z,0
2019-05-21T00:02:05.795Z,0
2019-05-21T00:03:05.847Z,0
2019-05-21T00:04:06.060Z,0
2019-05-21T00:05:05.532Z,0
2019-05-21T00:06:09.062Z,0
2019-05-21T00:07:12.496Z,0
2019-05-21T00:08:05.765Z,0
2019-05-21T00:09:05.591Z,0
2019-05-21T00:10:06.062Z,0
2019-05-21T00:11:05.517Z,0
2019-05-21T00:12:06.183Z,0
2019-05-21T00:13:06.004Z,0
2019-05-21T00:14:05.521Z,0
2019-05-21T00:15:05.778Z,0
2019-05-21T00:16:05.762Z,0
2019-05-21T00:17:07.641Z,0
2019-05-21T00:18:08.793Z,0
2019-05-21T00:19:05.524Z,0
2019-05-21T00:20:06.059Z,0
2019-05-21T00:21:05.239Z,0
2019-05-21T00:22:05.988Z,0
2019-05-21T00:23:06.070Z,0
2019-05-21T00:24:05.747Z,0
2019-05-21T00:25:05.856Z,0
2019-05-21T00:26:05.471Z,0
2019-05-21T00:27:05.732Z,0
2019-05-21T00:28:11.980Z,0
2019-05-21T00:29:08.751Z,0
2019-05-21T00:30:06.013Z,0
2019-05-21T00:31:05.230Z,0
2019-05-21T00:32:05.751Z,0
2019-05-21T00:33:05.971Z,0
2019-05-21T00:34:05.219Z,0
2019-05-21T00:35:05.197Z,0
2019-05-21T00:36:05.699Z,0
2019-05-21T00:37:05.941Z,0
2019-05-21T00:38:06.870Z,0
2019-05-21T00:39:08.467Z,0
2019-05-21T00:40:05.424Z,0
2019-05-21T00:41:06.020Z,0
2019-05-21T00:42:05.467Z,0
2019-05-21T00:43:05.420Z,0
2019-05-21T00:44:05.657Z,0
2019-05-21T00:45:05.914Z,0
2019-05-21T00:46:05.664Z,0
2019-05-21T00:47:05.533Z,0
2019-05-21T00:48:07.977Z,0
2019-05-21T00:49:08.981Z,0
2019-05-21T00:50:09.004Z,0
2019-05-21T00:51:05.387Z,0
2019-05-21T00:52:20.524Z,0
2019-05-21T00:53:05.633Z,0
2019-05-21T00:54:05.799Z,0
2019-05-21T00:55:05.393Z,0
2019-05-21T00:56:05.665Z,0
2019-05-21T00:57:05.187Z,0
2019-05-21T00:58:05.391Z,0
2019-05-21T00:59:05.615Z,0
2019-05-21T01:00:09.511Z,0
2019-05-21T01:01:07.278Z,0
2019-05-21T01:02:05.629Z,0
2019-05-21T01:03:05.223Z,0
2019-05-21T01:04:05.689Z,0
2019-05-21T01:05:10.496Z,0
2019-05-21T01:06:05.357Z,0
2019-05-21T01:07:05.365Z,0
2019-05-21T01:08:05.597Z,0
2019-05-21T01:09:05.912Z,0
2019-05-21T01:10:06.321Z,0
2019-05-21T01:11:08.762Z,0
2019-05-21T01:12:12.106Z,0
2019-05-21T01:13:05.343Z,0
2019-05-21T01:14:05.457Z,0
2019-05-21T01:15:05.909Z,0
2019-05-21T01:16:05.363Z,0
2019-05-21T01:17:05.329Z,0
2019-05-21T01:18:05.317Z,0
2019-05-21T01:19:05.820Z,0
2019-05-21T01:20:05.305Z,0
2019-05-21T01:21:08.416Z,0
2019-05-21T01:22:06.986Z,0
2019-05-21T01:23:05.598Z,0
2019-05-21T01:24:05.779Z,0
2019-05-21T01:25:05.545Z,0
2019-05-21T01:26:05.604Z,0
2019-05-21T01:27:05.820Z,0
2019-05-21T01:28:05.783Z,0
2019-05-21T01:29:05.631Z,0
2019-05-21T01:30:05.543Z,0
2019-05-21T01:31:05.288Z,0
2019-05-21T01:32:07.274Z,0
2019-05-21T01:33:08.788Z,0
2019-05-21T01:34:05.514Z,0
2019-05-21T01:35:28.414Z,0
2019-05-21T01:36:05.518Z,0
2019-05-21T01:37:05.312Z,0
2019-05-21T01:38:05.543Z,0
2019-05-21T01:39:05.280Z,0
2019-05-21T01:40:05.490Z,0
2019-05-21T01:41:05.727Z,0
2019-05-21T01:42:05.554Z,0
2019-05-21T01:43:08.320Z,0
2019-05-21T01:44:08.525Z,0
2019-05-21T01:45:05.751Z,0
2019-05-21T01:46:05.492Z,0
2019-05-21T01:47:05.751Z,0
2019-05-21T01:48:05.217Z,0
2019-05-21T01:49:05.670Z,0
2019-05-21T01:50:05.474Z,0
2019-05-21T01:51:05.227Z,0
2019-05-21T01:52:05.763Z,0
2019-05-21T01:53:07.085Z,0
2019-05-21T01:54:08.479Z,0
2019-05-21T01:55:05.183Z,0
2019-05-21T01:56:05.859Z,0
2019-05-21T01:57:05.005Z,0
2019-05-21T01:58:05.670Z,0
2019-05-21T01:59:05.255Z,0
2019-05-21T02:00:05.185Z,0
2019-05-21T02:01:05.435Z,0
2019-05-21T02:02:05.476Z,0
2019-05-21T02:03:05.419Z,0
2019-05-21T02:04:11.936Z,0
2019-05-21T02:05:08.438Z,0
2019-05-21T02:06:05.194Z,0
2019-05-21T02:07:05.427Z,0
2019-05-21T02:08:05.173Z,0
2019-05-21T02:09:05.153Z,0
2019-05-21T02:10:05.665Z,0
2019-05-21T02:11:05.636Z,0
2019-05-21T02:12:05.442Z,0
2019-05-21T02:13:05.387Z,0
2019-05-21T02:14:05.625Z,0
2019-05-21T02:15:08.457Z,0
2019-05-21T02:16:08.200Z,0
2019-05-21T02:17:05.388Z,0
2019-05-21T02:18:05.107Z,0
2019-05-21T02:19:05.592Z,0
2019-05-21T02:20:05.398Z,0
2019-05-21T02:21:05.630Z,0
2019-05-21T02:22:05.343Z,0
2019-05-21T02:23:05.104Z,0
2019-05-21T02:24:05.658Z,0
2019-05-21T02:25:05.510Z,0
2019-05-21T02:26:08.396Z,0
2019-05-21T02:27:05.343Z,0
2019-05-21T02:28:05.338Z,0
2019-05-21T02:29:05.324Z,0
2019-05-21T02:30:06.810Z,0
2019-05-21T02:31:06.528Z,0
2019-05-21T02:32:05.120Z,0
2019-05-21T02:33:05.550Z,0
2019-05-21T02:34:05.308Z,0
2019-05-21T02:35:05.617Z,0
2019-05-21T02:36:08.346Z,0
2019-05-21T02:37:09.010Z,0
2019-05-21T02:38:05.307Z,0
2019-05-21T02:39:05.533Z,0
2019-05-21T02:40:05.538Z,0
2019-05-21T02:41:05.063Z,0
2019-05-21T02:42:05.863Z,0
2019-05-21T02:43:05.282Z,0
2019-05-21T02:44:05.507Z,0
2019-05-21T02:45:05.032Z,0
2019-05-21T02:46:05.273Z,0
2019-05-21T02:47:08.429Z,0
2019-05-21T02:48:11.774Z,0
2019-05-21T02:49:05.244Z,0
2019-05-21T02:50:05.533Z,0
2019-05-21T02:51:05.000Z,0
2019-05-21T02:52:05.018Z,0
2019-05-21T02:53:05.488Z,0
2019-05-21T02:54:05.239Z,0
2019-05-21T02:55:05.322Z,0
2019-05-21T02:56:05.256Z,0
2019-05-21T02:57:04.809Z,0
2019-05-21T02:58:07.070Z,0
2019-05-21T02:59:08.291Z,0
2019-05-21T03:00:05.461Z,0
2019-05-21T03:01:05.218Z,0
2019-05-21T03:02:05.203Z,0
2019-05-21T03:03:05.457Z,0
2019-05-21T03:04:05.524Z,0
2019-05-21T03:05:05.448Z,0
2019-05-21T03:06:22.258Z,0
2019-05-21T03:07:05.181Z,0
2019-05-21T03:08:08.478Z,0
2019-05-21T03:09:11.211Z,0
2019-05-21T03:10:04.703Z,0
2019-05-21T03:11:05.212Z,0
2019-05-21T03:12:06.818Z,0
2019-05-21T03:13:04.962Z,0
2019-05-21T03:14:05.180Z,0
2019-05-21T03:15:05.228Z,0
2019-05-21T03:16:05.420Z,0
2019-05-21T03:17:05.400Z,0
2019-05-21T03:18:04.431Z,0
2019-05-21T03:19:11.421Z,0
2019-05-21T03:20:07.960Z,0
2019-05-21T03:21:05.160Z,0
2019-05-21T03:22:05.434Z,0
2019-05-21T03:23:04.922Z,0
2019-05-21T03:24:05.145Z,0
2019-05-21T03:25:09.256Z,0
2019-05-21T03:26:05.140Z,0
2019-05-21T03:27:04.882Z,0
2019-05-21T03:28:05.135Z,0
2019-05-21T03:29:04.872Z,0
2019-05-21T03:30:08.152Z,0
2019-05-21T03:31:08.004Z,0
2019-05-21T03:32:05.593Z,0
2019-05-21T03:33:05.156Z,0
2019-05-21T03:34:05.429Z,0
2019-05-21T03:35:05.404Z,0
2019-05-21T03:36:05.390Z,0
2019-05-21T03:37:05.119Z,0
2019-05-21T03:38:04.604Z,0
2019-05-21T03:39:04.986Z,0
2019-05-21T03:40:06.269Z,0
2019-05-21T03:41:07.890Z,0
2019-05-21T03:42:12.172Z,0
2019-05-21T03:43:05.356Z,0
2019-05-21T03:44:05.071Z,0
2019-05-21T03:45:14.421Z,0
2019-05-21T03:46:05.115Z,0
2019-05-21T03:47:05.329Z,0
2019-05-21T03:48:05.088Z,0
2019-05-21T03:49:05.302Z,0
2019-05-21T03:50:05.299Z,0
2019-05-21T03:51:08.123Z,0
2019-05-21T03:52:09.317Z,0
2019-05-21T03:53:04.701Z,0
2019-05-21T03:54:05.064Z,0
2019-05-21T03:55:09.478Z,0
2019-05-21T03:56:04.798Z,0
2019-05-21T03:57:04.830Z,0
2019-05-21T03:58:05.120Z,0
2019-05-21T03:59:05.066Z,0
2019-05-21T04:00:05.317Z,0
2019-05-21T04:01:05.048Z,0
2019-05-21T04:02:07.837Z,0
2019-05-21T04:03:06.461Z,0
2019-05-21T04:04:04.752Z,0
2019-05-21T04:05:05.054Z,0
2019-05-21T04:06:04.787Z,0
2019-05-21T04:07:05.022Z,0
2019-05-21T04:08:05.238Z,0
2019-05-21T04:09:05.249Z,0
2019-05-21T04:10:04.982Z,0
2019-05-21T04:11:05.263Z,0
2019-05-21T04:12:05.226Z,0
2019-05-21T04:13:07.009Z,0
2019-05-21T04:14:04.707Z,0
2019-05-21T04:15:05.219Z,0
2019-05-21T04:16:04.987Z,0
2019-05-21T04:17:04.712Z,0
2019-05-21T04:18:04.977Z,0
2019-05-21T04:19:05.235Z,0
2019-05-21T04:20:04.998Z,5
2019-05-21T04:21:04.693Z,5
2019-05-21T04:22:05.228Z,5
2019-05-21T04:23:07.367Z,5
2019-05-21T04:24:13.999Z,5
2019-05-21T04:25:04.978Z,5
2019-05-21T04:26:05.197Z,5
2019-05-21T04:27:04.713Z,5
2019-05-21T04:28:04.984Z,5
2019-05-21T04:29:04.470Z,5
2019-05-21T04:30:05.155Z,5
2019-05-21T04:31:04.913Z,5
2019-05-21T04:32:05.183Z,5
2019-05-21T04:33:04.918Z,5
2019-05-21T04:34:06.502Z,5
2019-05-21T04:35:07.924Z,5
2019-05-21T04:36:04.934Z,5
2019-05-21T04:37:28.417Z,5
2019-05-21T04:38:05.148Z,5
2019-05-21T04:39:04.907Z,5
2019-05-21T04:40:04.754Z,5
2019-05-21T04:41:05.118Z,5
2019-05-21T04:42:05.109Z,5
2019-05-21T04:43:09.499Z,10
2019-05-21T04:44:04.888Z,10
2019-05-21T04:45:11.389Z,10
2019-05-21T04:46:07.651Z,10
2019-05-21T04:47:04.869Z,10
2019-05-21T04:48:04.858Z,10
2019-05-21T04:49:05.191Z,10
2019-05-21T04:50:04.888Z,10
2019-05-21T04:51:05.112Z,10
2019-05-21T04:52:04.600Z,10
2019-05-21T04:53:04.850Z,10
2019-05-21T04:54:05.110Z,10
2019-05-21T04:55:06.017Z,15
2019-05-21T04:56:08.015Z,15
2019-05-21T04:57:04.817Z,10
2019-05-21T04:58:04.821Z,10
2019-05-21T04:59:05.072Z,10
2019-05-21T05:00:04.821Z,10
2019-05-21T05:01:04.856Z,10
2019-05-21T05:02:05.211Z,10
2019-05-21T05:03:04.811Z,10
2019-05-21T05:04:04.899Z,10
2019-05-21T05:05:04.572Z,10
2019-05-21T05:06:07.313Z,15
2019-05-21T05:07:07.902Z,15
2019-05-21T05:08:04.826Z,15
2019-05-21T05:09:04.524Z,15
2019-05-21T05:10:04.793Z,15
2019-05-21T05:11:04.577Z,15
2019-05-21T05:12:04.939Z,15
2019-05-21T05:13:05.072Z,15
2019-05-21T05:14:04.786Z,15
2019-05-21T05:15:04.538Z,15
2019-05-21T05:16:06.589Z,15
2019-05-21T05:17:07.806Z,20
2019-05-21T05:18:07.789Z,20
2019-05-21T05:19:04.230Z,20
2019-05-21T05:20:04.774Z,20
2019-05-21T05:21:04.272Z,25
2019-05-21T05:22:04.590Z,25
2019-05-21T05:23:05.086Z,20
2019-05-21T05:24:05.033Z,20
2019-05-21T05:25:04.516Z,15
2019-05-21T05:26:04.526Z,15
2019-05-21T05:27:05.591Z,15
2019-05-21T05:28:09.083Z,20
2019-05-21T05:29:04.762Z,25
2019-05-21T05:30:04.190Z,25
2019-05-21T05:31:04.989Z,25
2019-05-21T05:32:04.215Z,25
2019-05-21T05:33:04.708Z,25
2019-05-21T05:34:04.431Z,25
2019-05-21T05:35:04.665Z,25
2019-05-21T05:36:04.461Z,25
2019-05-21T05:37:04.434Z,25
2019-05-21T05:38:07.457Z,25
2019-05-21T05:39:07.187Z,25
2019-05-21T05:40:04.462Z,25
2019-05-21T05:41:04.646Z,25
2019-05-21T05:42:04.634Z,25
2019-05-21T05:43:04.455Z,25
2019-05-21T05:44:06.552Z,25
2019-05-21T05:45:04.893Z,25
2019-05-21T05:46:04.640Z,25
2019-05-21T05:47:04.382Z,30
2019-05-21T05:48:04.631Z,30
2019-05-21T05:49:08.845Z,30
2019-05-21T05:50:10.917Z,35
2019-05-21T05:51:04.654Z,35
2019-05-21T05:52:04.599Z,35
2019-05-21T05:53:04.716Z,35
2019-05-21T05:54:07.474Z,35
2019-05-21T05:55:04.644Z,35
2019-05-21T05:56:04.109Z,35
2019-05-21T05:57:04.682Z,35
2019-05-21T05:58:04.444Z,35
2019-05-21T05:59:04.722Z,35
2019-05-21T06:00:05.957Z,30
2019-05-21T06:01:07.434Z,30
2019-05-21T06:02:04.628Z,30
2019-05-21T06:03:04.578Z,30
2019-05-21T06:04:04.588Z,30
2019-05-21T06:05:04.599Z,30
2019-05-21T06:06:04.564Z,30
2019-05-21T06:07:04.348Z,30
2019-05-21T06:08:09.592Z,30
2019-05-21T06:09:04.597Z,30
2019-05-21T06:10:05.747Z,30
2019-05-21T06:11:07.857Z,30
2019-05-21T06:12:04.864Z,30
2019-05-21T06:13:04.072Z,30
2019-05-21T06:14:05.356Z,30
2019-05-21T06:15:05.583Z,35
2019-05-21T06:16:04.541Z,35
2019-05-21T06:17:05.269Z,40
2019-05-21T06:18:04.568Z,40
2019-05-21T06:19:04.788Z,40
2019-05-21T06:20:04.291Z,40
2019-05-21T06:21:11.052Z,40
2019-05-21T06:22:07.603Z,40
2019-05-21T06:23:04.511Z,40
2019-05-21T06:24:04.269Z,45
2019-05-21T06:25:04.986Z,45
2019-05-21T06:26:04.028Z,45
2019-05-21T06:27:04.250Z,45
2019-05-21T06:28:04.728Z,50
2019-05-21T06:29:04.514Z,50
2019-05-21T06:30:04.227Z,50
2019-05-21T06:31:04.264Z,50
2019-05-21T06:32:07.577Z,45
2019-05-21T06:33:07.520Z,45
2019-05-21T06:34:04.223Z,45
2019-05-21T06:35:04.713Z,45
2019-05-21T06:36:04.490Z,45
2019-05-21T06:37:04.482Z,45
2019-05-21T06:38:21.411Z,45
2019-05-21T06:39:04.704Z,45
2019-05-21T06:40:04.726Z,45
2019-05-21T06:41:04.535Z,45
2019-05-21T06:42:05.849Z,45
2019-05-21T06:43:07.476Z,45
2019-05-21T06:44:04.757Z,50
2019-05-21T06:45:05.255Z,55
2019-05-21T06:46:04.180Z,55
2019-05-21T06:47:04.203Z,55
2019-05-21T06:48:04.681Z,60
2019-05-21T06:49:03.739Z,60
2019-05-21T06:50:04.484Z,60
2019-05-21T06:51:04.205Z,65
2019-05-21T06:52:04.191Z,65
2019-05-21T06:53:07.224Z,65
2019-05-21T06:54:07.231Z,65
2019-05-21T06:55:04.643Z,65
2019-05-21T06:56:07.289Z,65
2019-05-21T06:57:03.903Z,60
2019-05-21T06:58:04.146Z,60
2019-05-21T06:59:04.400Z,60
2019-05-21T07:00:04.302Z,60
2019-05-21T07:01:04.496Z,55
2019-05-21T07:02:04.141Z,55
2019-05-21T07:03:04.141Z,55
2019-05-21T07:04:07.902Z,50
2019-05-21T07:05:07.892Z,50
2019-05-21T07:06:08.271Z,50
2019-05-21T07:07:04.658Z,50
2019-05-21T07:08:04.165Z,45
2019-05-21T07:09:04.607Z,45
2019-05-21T07:10:03.614Z,45
2019-05-21T07:11:04.690Z,50
2019-05-21T07:12:04.467Z,50
2019-05-21T07:13:03.909Z,50
2019-05-21T07:14:03.625Z,55
2019-05-21T07:15:05.986Z,60
2019-05-21T07:16:07.370Z,60
2019-05-21T07:17:04.619Z,60
2019-05-21T07:18:04.340Z,60
2019-05-21T07:19:04.615Z,60
2019-05-21T07:20:04.377Z,60
2019-05-21T07:21:04.584Z,60
2019-05-21T07:22:20.646Z,60
2019-05-21T07:23:05.105Z,60
2019-05-21T07:24:04.612Z,60
2019-05-21T07:25:06.989Z,60
2019-05-21T07:26:10.331Z,60
2019-05-21T07:27:04.623Z,65
2019-05-21T07:28:04.569Z,65
2019-05-21T07:29:05.561Z,65
2019-05-21T07:30:03.781Z,70
2019-05-21T07:31:04.534Z,70
2019-05-21T07:32:04.093Z,70
2019-05-21T07:33:05.580Z,75
2019-05-21T07:34:04.278Z,75
2019-05-21T07:35:04.355Z,80
2019-05-21T07:36:05.518Z,80
2019-05-21T07:37:07.653Z,80
2019-05-21T07:38:04.499Z,80
2019-05-21T07:39:04.017Z,85
2019-05-21T07:40:04.279Z,90
2019-05-21T07:41:04.373Z,90
2019-05-21T07:42:04.015Z,95
2019-05-21T07:43:04.011Z,100
2019-05-21T07:44:04.561Z,100
2019-05-21T07:45:05.031Z,105
2019-05-21T07:46:03.981Z,105
2019-05-21T07:47:07.294Z,105
2019-05-21T07:48:07.496Z,105
2019-05-21T07:49:04.461Z,105
2019-05-21T07:50:04.306Z,110
2019-05-21T07:51:04.508Z,110
2019-05-21T07:52:03.947Z,115
2019-05-21T07:53:04.473Z,115
2019-05-21T07:54:04.001Z,120
2019-05-21T07:55:04.457Z,125
2019-05-21T07:56:04.200Z,125
2019-05-21T07:57:05.458Z,130
2019-05-21T07:58:06.971Z,130
2019-05-21T07:59:04.755Z,130
2019-05-21T08:00:04.284Z,125
2019-05-21T08:01:08.048Z,125
2019-05-21T08:02:04.260Z,125
2019-05-21T08:03:03.960Z,125
2019-05-21T08:04:04.283Z,125
2019-05-21T08:05:04.909Z,130
2019-05-21T08:06:04.245Z,125
2019-05-21T08:07:04.158Z,125
2019-05-21T08:08:06.942Z,125
2019-05-21T08:09:21.974Z,120
2019-05-21T08:10:03.894Z,120
2019-05-21T08:11:04.430Z,120
2019-05-21T08:12:37.751Z,115
2019-05-21T08:13:03.923Z,115
2019-05-21T08:14:03.886Z,115
2019-05-21T08:15:04.988Z,110
2019-05-21T08:16:04.143Z,110
2019-05-21T08:17:04.373Z,105
2019-05-21T08:18:04.214Z,105
2019-05-21T08:19:07.396Z,105
2019-05-21T08:20:15.749Z,105
2019-05-21T08:21:03.857Z,115
2019-05-21T08:22:04.117Z,110
2019-05-21T08:23:04.114Z,105
2019-05-21T08:24:03.860Z,100
2019-05-21T08:25:04.349Z,95
2019-05-21T08:26:03.878Z,95
2019-05-21T08:27:04.243Z,90
2019-05-21T08:28:03.850Z,90
2019-05-21T08:29:04.092Z,90
2019-05-21T08:30:06.702Z,90
2019-05-21T08:31:10.090Z,95
2019-05-21T08:32:03.841Z,90
2019-05-21T08:33:03.826Z,85
2019-05-21T08:34:04.124Z,80
2019-05-21T08:35:04.073Z,85
2019-05-21T08:36:05.007Z,85
2019-05-21T08:37:04.065Z,85
2019-05-21T08:38:06.574Z,90
2019-05-21T08:39:04.456Z,85
2019-05-21T08:40:07.357Z,85
2019-05-21T08:41:10.341Z,85
2019-05-21T08:42:04.063Z,85
2019-05-21T08:43:04.357Z,80
2019-05-21T08:44:04.045Z,75
2019-05-21T08:45:04.791Z,75
2019-05-21T08:46:03.853Z,70
2019-05-21T08:47:04.026Z,75
2019-05-21T08:48:04.035Z,85
2019-05-21T08:49:04.044Z,90
2019-05-21T08:50:03.816Z,90
2019-05-21T08:51:06.510Z,90
2019-05-21T08:52:07.111Z,90
2019-05-21T08:53:04.041Z,90
2019-05-21T08:54:04.061Z,95
2019-05-21T08:55:05.897Z,95
2019-05-21T08:56:04.036Z,100
2019-05-21T08:57:03.519Z,100
2019-05-21T09:00:13.843Z,100
2019-05-21T09:01:23.799Z,100
2019-05-21T09:02:23.740Z,100
2019-05-21T09:03:23.294Z,100
2019-05-21T09:04:43.602Z,95
2019-05-21T09:05:26.536Z,95
2019-05-21T09:06:26.560Z,90
2019-05-21T09:07:23.457Z,85
2019-05-21T09:08:23.217Z,85
2019-05-21T09:09:23.475Z,90
2019-05-21T09:10:23.467Z,90
2019-05-21T09:11:23.213Z,95
2019-05-21T09:12:23.208Z,90
2019-05-21T09:13:26.703Z,95
2019-05-21T09:14:23.194Z,90
2019-05-21T09:15:23.796Z,90
2019-05-21T09:16:26.227Z,90
2019-05-21T09:17:29.753Z,90
2019-05-21T09:18:23.451Z,90
2019-05-21T09:19:23.434Z,90
2019-05-21T09:20:22.938Z,95
2019-05-21T09:21:23.480Z,95
2019-05-21T09:22:23.413Z,100
2019-05-21T09:23:23.449Z,100
2019-05-21T09:24:23.739Z,100
2019-05-21T09:25:23.410Z,105
2019-05-21T09:26:26.265Z,110
2019-05-21T09:27:29.710Z,100
2019-05-21T09:28:23.395Z,100
2019-05-21T09:29:23.262Z,105
2019-05-21T09:30:23.681Z,100
2019-05-21T09:31:23.741Z,100
2019-05-21T09:32:23.378Z,95
2019-05-21T09:33:23.627Z,100
2019-05-21T09:34:23.379Z,95
2019-05-21T09:35:23.712Z,85
2019-05-21T09:36:28.042Z,80
2019-05-21T09:37:29.297Z,85
2019-05-21T09:38:29.231Z,85
2019-05-21T09:39:22.641Z,90
2019-05-21T09:40:23.757Z,95
2019-05-21T09:41:23.409Z,95
2019-05-21T09:42:23.444Z,90
2019-05-21T09:43:23.102Z,95
2019-05-21T09:44:22.850Z,95
2019-05-21T09:45:23.343Z,90
2019-05-21T09:46:24.758Z,90
2019-05-21T09:47:23.650Z,90
2019-05-21T09:48:29.987Z,90
2019-05-21T09:49:26.378Z,90
2019-05-21T09:50:23.336Z,100
2019-05-21T09:51:29.095Z,105
2019-05-21T09:52:23.575Z,105
2019-05-21T09:53:23.429Z,110
2019-05-21T09:54:23.306Z,115
2019-05-21T09:55:23.441Z,115
2019-05-21T09:56:23.090Z,120
2019-05-21T09:57:23.051Z,115
2019-05-21T09:58:24.838Z,130
2019-05-21T09:59:26.708Z,140
2019-05-21T10:00:23.591Z,140
2019-05-21T10:01:23.541Z,135
2019-05-21T10:02:22.796Z,135
2019-05-21T10:03:23.283Z,130
2019-05-21T10:04:23.563Z,125
2019-05-21T10:05:23.280Z,125
2019-05-21T10:06:23.282Z,115
2019-05-21T10:07:43.379Z,115
2019-05-21T10:08:22.796Z,120
2019-05-21T10:09:29.837Z,125
2019-05-21T10:10:26.582Z,130
2019-05-21T10:11:23.033Z,130
2019-05-21T10:12:23.671Z,125
2019-05-21T10:13:23.248Z,125
2019-05-21T10:14:23.533Z,125
2019-05-21T10:15:23.098Z,130
2019-05-21T10:16:23.298Z,120
2019-05-21T10:17:23.300Z,125
2019-05-21T10:18:23.003Z,120
2019-05-21T10:19:23.240Z,120
2019-05-21T10:20:26.050Z,115
2019-05-21T10:21:25.944Z,110
2019-05-21T10:22:23.238Z,110
2019-05-21T10:23:22.986Z,110
2019-05-21T10:24:23.476Z,110
2019-05-21T10:25:25.167Z,110
2019-05-21T10:26:22.965Z,110
2019-05-21T10:27:23.309Z,100
2019-05-21T10:28:22.981Z,95
2019-05-21T10:29:23.201Z,95
2019-05-21T10:30:24.076Z,105
2019-05-21T10:31:26.517Z,100
2019-05-21T10:32:23.249Z,90
2019-05-21T10:33:23.432Z,95
2019-05-21T10:34:23.253Z,100
2019-05-21T10:35:22.969Z,100
2019-05-21T10:36:23.574Z,90
2019-05-21T10:37:23.189Z,105
2019-05-21T10:38:23.501Z,95
2019-05-21T10:39:23.237Z,95
2019-05-21T10:40:22.950Z,85
2019-05-21T10:41:25.725Z,80
2019-05-21T10:42:26.223Z,80
2019-05-21T10:43:22.766Z,80
2019-05-21T10:44:22.938Z,80
2019-05-21T10:45:22.968Z,85
2019-05-21T10:46:23.182Z,80
2019-05-21T10:47:25.951Z,85
2019-05-21T10:48:23.525Z,85
2019-05-21T10:49:23.169Z,85
2019-05-21T10:50:23.412Z,85
2019-05-21T10:51:22.904Z,80
2019-05-21T10:52:26.207Z,75
2019-05-21T10:53:26.271Z,75
2019-05-21T10:54:23.468Z,75
2019-05-21T10:55:25.636Z,80
2019-05-21T10:56:23.141Z,80
2019-05-21T10:57:23.455Z,80
2019-05-21T10:58:22.887Z,80
2019-05-21T10:59:23.386Z,80
2019-05-21T11:00:27.521Z,80
2019-05-21T11:01:23.138Z,85
2019-05-21T11:02:22.611Z,85
2019-05-21T11:03:29.325Z,90
2019-05-21T11:04:25.970Z,85
2019-05-21T11:05:22.863Z,85
2019-05-21T11:06:23.142Z,80
2019-05-21T11:07:23.355Z,75
2019-05-21T11:08:33.110Z,80
2019-05-21T11:09:23.434Z,90
2019-05-21T11:10:23.658Z,100
2019-05-21T11:11:27.933Z,105
2019-05-21T11:12:23.369Z,100
2019-05-21T11:13:24.517Z,90
2019-05-21T11:14:26.124Z,100
2019-05-21T11:15:23.511Z,95
2019-05-21T11:16:23.097Z,100
2019-05-21T11:17:23.568Z,105
2019-05-21T11:18:23.329Z,105
2019-05-21T11:19:23.151Z,95
2019-05-21T11:20:23.330Z,95
2019-05-21T11:21:23.432Z,90
2019-05-21T11:22:23.080Z,95
2019-05-21T11:23:23.308Z,95
2019-05-21T11:24:29.097Z,85
2019-05-21T11:25:26.159Z,85
2019-05-21T11:26:22.845Z,85
2019-05-21T11:27:23.091Z,90
2019-05-21T11:28:23.066Z,90
2019-05-21T11:29:23.312Z,90
2019-05-21T11:30:23.295Z,90
2019-05-21T11:31:23.234Z,85
2019-05-21T11:32:22.796Z,90
2019-05-21T11:33:23.056Z,95
2019-05-21T11:34:23.316Z,100
2019-05-21T11:35:26.068Z,110
2019-05-21T11:36:26.053Z,110
2019-05-21T11:37:23.289Z,105
2019-05-21T11:38:37.660Z,115
2019-05-21T11:39:23.024Z,105
2019-05-21T11:40:23.412Z,95
2019-05-21T11:41:23.456Z,90
2019-05-21T11:42:23.058Z,90
2019-05-21T11:43:23.095Z,90
2019-05-21T11:44:23.009Z,95
2019-05-21T11:45:40.329Z,100
2019-05-21T11:46:26.033Z,100
2019-05-21T11:47:22.773Z,95
2019-05-21T11:48:23.870Z,95
2019-05-21T11:49:22.799Z,95
2019-05-21T11:50:23.003Z,100
2019-05-21T11:51:23.677Z,95
2019-05-21T11:52:23.285Z,100
2019-05-21T11:53:23.019Z,105
2019-05-21T11:54:23.000Z,100
2019-05-21T11:55:23.246Z,100
2019-05-21T11:56:26.176Z,100
2019-05-21T11:57:25.516Z,105
2019-05-21T11:58:23.088Z,120
2019-05-21T11:59:23.128Z,120
2019-05-21T12:00:26.351Z,120
2019-05-21T12:01:22.772Z,130
2019-05-21T12:02:22.588Z,130
2019-05-21T12:03:23.054Z,130
2019-05-21T12:04:23.214Z,130
2019-05-21T12:05:22.750Z,125
2019-05-21T12:06:23.337Z,135
2019-05-21T12:07:25.743Z,135
2019-05-21T12:08:24.314Z,150
2019-05-21T12:09:22.999Z,150
2019-05-21T12:10:22.970Z,150
2019-05-21T12:11:22.875Z,150
2019-05-21T12:12:22.942Z,160
2019-05-21T12:13:27.528Z,160
2019-05-21T12:14:22.950Z,160
2019-05-21T12:15:22.948Z,170
2019-05-21T12:16:22.954Z,175
2019-05-21T12:17:22.756Z,175
2019-05-21T12:18:24.540Z,175
2019-05-21T12:19:26.267Z,180
2019-05-21T12:20:40.141Z,185
2019-05-21T12:21:22.924Z,185
2019-05-21T12:22:22.934Z,185
2019-05-21T12:23:22.731Z,200
2019-05-21T12:24:22.682Z,200
2019-05-21T12:25:22.911Z,180
2019-05-21T12:26:23.044Z,170
2019-05-21T12:27:22.914Z,170
2019-05-21T12:28:25.959Z,180
2019-05-21T12:29:26.315Z,190
2019-05-21T12:30:22.910Z,185
2019-05-21T12:31:22.891Z,180
2019-05-21T12:32:25.753Z,170
2019-05-21T12:33:22.412Z,165
2019-05-21T12:34:22.716Z,160
2019-05-21T12:35:22.650Z,150
2019-05-21T12:36:23.183Z,145
2019-05-21T12:37:23.024Z,135
2019-05-21T12:38:23.155Z,140
2019-05-21T12:39:28.763Z,140
2019-05-21T12:40:25.944Z,145
2019-05-21T12:41:23.475Z,145
2019-05-21T12:42:22.926Z,145
2019-05-21T12:43:22.406Z,150
2019-05-21T12:44:23.145Z,145
2019-05-21T12:45:22.939Z,140
2019-05-21T12:46:22.882Z,145
2019-05-21T12:47:22.407Z,140
2019-05-21T12:48:22.666Z,140
2019-05-21T12:49:24.892Z,140
2019-05-21T12:50:25.707Z,140
2019-05-21T12:51:25.738Z,140
2019-05-21T12:52:22.414Z,140
2019-05-21T12:53:25.623Z,130
2019-05-21T12:54:23.114Z,120
2019-05-21T12:55:23.110Z,120
2019-05-21T12:56:23.174Z,120
2019-05-21T12:57:22.860Z,120
2019-05-21T12:58:22.652Z,115
2019-05-21T12:59:22.618Z,110
2019-05-21T13:00:24.237Z,100
2019-05-21T13:01:25.901Z,110
2019-05-21T13:02:22.605Z,110
2019-05-21T13:03:22.864Z,110
2019-05-21T13:04:22.951Z,120
2019-05-21T13:05:22.899Z,105
2019-05-21T13:06:23.182Z,100
2019-05-21T13:07:23.355Z,105
2019-05-21T13:08:22.871Z,100
2019-05-21T13:09:40.770Z,115
2019-05-21T13:10:26.402Z,115
2019-05-21T13:11:26.110Z,110
2019-05-21T13:12:25.874Z,105
2019-05-21T13:13:23.111Z,105
2019-05-21T13:14:28.056Z,125
2019-05-21T13:15:22.343Z,125
2019-05-21T13:16:22.632Z,120
2019-05-21T13:17:22.599Z,115
2019-05-21T13:18:22.829Z,120
2019-05-21T13:19:22.833Z,125
2019-05-21T13:20:23.677Z,120
2019-05-21T13:21:22.560Z,95
2019-05-21T13:22:25.349Z,105
2019-05-21T13:23:24.026Z,105
2019-05-21T13:24:22.630Z,100
2019-05-21T13:25:22.842Z,85
2019-05-21T13:26:23.062Z,90
2019-05-21T13:27:22.757Z,80
2019-05-21T13:28:22.534Z,80
2019-05-21T13:29:22.829Z,75
2019-05-21T13:30:22.567Z,75
2019-05-21T13:31:22.805Z,80
2019-05-21T13:32:22.547Z,80
2019-05-21T13:33:26.417Z,75
2019-05-21T13:34:22.307Z,85
2019-05-21T13:35:22.582Z,95
2019-05-21T13:36:22.522Z,120
2019-05-21T13:37:22.780Z,120
2019-05-21T13:38:23.412Z,120
2019-05-21T13:39:25.581Z,125
2019-05-21T13:40:22.772Z,125
2019-05-21T13:41:22.775Z,135
2019-05-21T13:42:22.533Z,120
2019-05-21T13:43:28.305Z,135
2019-05-21T13:44:29.084Z,140
2019-05-21T13:45:22.506Z,130
2019-05-21T13:46:22.516Z,140
2019-05-21T13:47:22.518Z,140
2019-05-21T13:48:22.766Z,160
2019-05-21T13:49:22.762Z,175
2019-05-21T13:50:23.141Z,165
2019-05-21T13:51:22.755Z,155
2019-05-21T13:52:22.584Z,135
2019-05-21T13:53:22.539Z,150
2019-05-21T13:54:29.058Z,155
2019-05-21T13:55:29.006Z,160
2019-05-21T13:56:22.765Z,160
2019-05-21T13:57:22.727Z,150
2019-05-21T13:58:22.998Z,145
2019-05-21T13:59:22.524Z,135
2019-05-21T14:00:23.329Z,130
2019-05-21T14:01:44.281Z,120
2019-05-21T14:02:22.835Z,120
2019-05-21T14:03:22.601Z,120
2019-05-21T14:04:22.764Z,125
2019-05-21T14:05:28.755Z,120
2019-05-21T14:06:28.291Z,125
2019-05-21T14:07:22.979Z,125
2019-05-21T14:08:22.831Z,130
2019-05-21T14:09:22.477Z,135
2019-05-21T14:10:28.988Z,130
2019-05-21T14:11:22.471Z,125
2019-05-21T14:12:22.721Z,120
2019-05-21T14:13:22.718Z,120
2019-05-21T14:14:22.201Z,125
2019-05-21T14:15:24.264Z,135
2019-05-21T14:16:26.434Z,145
2019-05-21T14:17:22.811Z,145
2019-05-21T14:18:22.793Z,135